EST,Max TemperatureF,Mean TemperatureF,Min TemperatureF,Max Dew PointF,MeanDew PointF,Min DewpointF,Max Humidity, Mean Humidity, Min Humidity, Max Sea Level PressureIn, Mean Sea Level PressureIn, Min Sea Level PressureIn, Max VisibilityMiles, Mean VisibilityMiles, Min VisibilityMiles, Max Wind SpeedMPH, Mean Wind SpeedMPH, Max Gust SpeedMPH,PrecipitationIn, CloudCover, Events, WindDirDegrees
2012-12-1,66,52,39,50,45,39,100,73,44,30.38,30.33,30.30,10,8,4,6,1,,0.00,3,,146
2012-12-2,69,56,44,54,49,45,100,81,49,30.38,30.32,30.25,10,8,1,13,2,,0.00,1,,212
2012-12-3,71,56,42,53,48,42,100,79,51,30.33,30.28,30.23,10,8,2,9,1,,0.00,3,,201
2012-12-4,71,58,46,53,50,45,100,77,45,30.32,30.26,30.21,10,9,2,9,2,,0.00,2,,221
2012-12-5,66,58,51,57,54,50,96,83,65,30.22,30.16,30.12,10,10,10,10,3,,0.00,6,,296
2012-12-6,60,55,50,54,44,37,88,66,46,30.19,30.14,30.11,10,10,10,12,5,16,0.00,7,,76
2012-12-7,62,54,46,49,44,39,86,74,58,30.14,30.07,29.99,10,10,7,10,5,,0.00,6,,90
2012-12-8,66,58,51,61,54,48,100,86,68,30.06,30.03,29.99,10,7,2,6,1,,0.01,8,Rain,99
2012-12-9,69,62,55,61,56,53,100,91,63,30.10,30.04,29.96,10,5,0,9,1,,0.00,6,Fog,185
2012-12-10,66,58,50,59,57,48,100,91,73,29.94,29.81,29.73,10,8,0,24,9,32,0.46,8,Rain-Thunderstorm,223
2012-12-11,48,42,35,45,35,31,89,80,67,30.17,30.01,29.86,10,9,7,17,12,23,0.00,2,,306
2012-12-12,51,44,37,39,36,30,89,73,61,30.27,30.22,30.13,10,10,8,9,4,16,0.00,3,Rain,17
2012-12-13,57,47,37,37,36,34,93,68,47,30.37,30.32,30.26,10,10,8,8,3,,0.00,2,,50
2012-12-14,59,44,30,37,33,29,100,72,39,30.42,30.32,30.22,10,9,5,6,1,,0.00,0,,95
2012-12-15,59,50,41,41,39,35,82,64,51,30.25,30.16,30.09,10,10,9,10,2,,0.00,5,,125
2012-12-16,55,54,52,55,52,41,100,93,66,30.06,29.97,29.92,10,5,0,13,2,,0.18,8,Fog-Rain,85
2012-12-17,57,54,51,56,54,52,100,96,88,29.94,29.81,29.71,10,9,2,12,5,17,0.00,7,Rain,185
2012-12-18,57,47,36,54,40,28,100,73,33,30.04,29.91,29.75,10,10,8,13,8,18,0.00,1,,278
2012-12-19,64,49,34,46,39,32,96,73,45,30.14,30.08,30.03,10,10,8,5,1,,0.00,0,,191
2012-12-20,59,50,42,58,45,27,100,82,52,30.05,29.83,29.67,10,6,2,20,7,34,0.30,7,Rain,191
2012-12-21,44,38,32,26,19,14,59,47,32,30.18,30.05,29.90,10,10,10,24,18,38,0.00,0,,286
2012-12-22,48,39,28,19,14,12,67,40,23,30.30,30.24,30.18,10,10,10,16,11,30,0.00,0,,298
2012-12-23,55,42,28,33,27,19,78,56,36,30.25,30.17,30.07,10,10,10,12,3,,0.00,3,,221
2012-12-24,57,52,46,55,49,30,100,93,50,30.04,29.92,29.86,10,6,0,10,4,,0.30,7,Fog-Rain,187
2012-12-25,51,50,48,52,50,48,100,99,94,30.01,29.94,29.75,10,2,0,10,3,24,0.12,8,Fog-Rain-Thunderstorm,78
2012-12-26,57,46,34,56,42,29,100,85,68,30.00,29.67,29.49,10,9,2,24,11,36,0.05,7,Rain,234
2012-12-27,42,37,30,29,28,27,85,74,60,30.12,30.08,30.00,10,10,9,18,12,30,0.00,4,,301
2012-12-28,50,40,30,40,32,27,100,76,48,30.16,30.05,29.91,10,8,2,7,2,,0.14,3,Rain,81
2012-12-29,41,38,34,40,35,26,100,89,72,30.25,29.95,29.80,10,7,2,21,7,31,0.41,8,Rain,294
2012-12-30,45,36,28,27,23,20,85,63,39,30.48,30.38,30.22,10,10,9,17,11,29,0.00,1,,314
2012-12-31,52,40,27,32,27,24,92,61,34,30.44,30.33,30.16,10,9,5,7,2,,0.00,4,,210